createdAt,value
2022-11-24T00:01:15.549Z,108.13
2022-11-24T00:03:44.102Z,103.60
2022-11-24T00:06:14.026Z,96.65
2022-11-24T00:08:43.576Z,99.32
2022-11-24T00:11:13.004Z,96.85
2022-11-24T00:13:40.866Z,95.95
2022-11-24T00:16:11.592Z,98.22
2022-11-24T00:18:42.289Z,98.68
2022-11-24T00:21:10.661Z,101.97
2022-11-24T00:23:39.196Z,103.30
2022-11-24T00:26:09.164Z,96.93
2022-11-24T00:28:38.177Z,104.50
2022-11-24T00:31:17.194Z,104.00
2022-11-24T00:33:47.879Z,102.47
2022-11-24T00:36:17.248Z,104.63
2022-11-24T00:38:45.523Z,98.40
2022-11-24T00:41:13.665Z,98.93
2022-11-24T00:43:41.496Z,102.78
2022-11-24T00:46:09.496Z,105.88
2022-11-24T00:48:37.417Z,97.88
2022-11-24T00:51:09.417Z,108.20
2022-11-24T00:53:37.420Z,96.57
2022-11-24T00:56:05.940Z,107.93
2022-11-24T00:58:34.471Z,99.97
2022-11-24T01:01:07.117Z,105.40
2022-11-24T01:03:35.302Z,105.18
2022-11-24T01:06:09.742Z,103.32
2022-11-24T01:08:38.790Z,96.78
2022-11-24T01:11:11.509Z,101.13
2022-11-24T01:13:39.640Z,101.63
2022-11-24T01:16:08.377Z,98.35
2022-11-24T01:18:36.274Z,100.20
2022-11-24T01:21:10.253Z,101.45
2022-11-24T01:23:38.325Z,98.75
2022-11-24T01:26:07.115Z,103.93
2022-11-24T01:28:35.653Z,93.97
2022-11-24T01:31:05.293Z,132.52
2022-11-24T01:33:33.982Z,101.30
2022-11-24T01:36:02.261Z,90.72
2022-11-24T01:38:31.554Z,93.20
2022-11-24T01:41:03.569Z,95.80
2022-11-24T01:43:31.584Z,94.75
2022-11-24T01:46:03.781Z,140.35
2022-11-24T01:48:37.621Z,92.53
2022-11-24T01:51:09.465Z,95.38
2022-11-24T01:53:43.034Z,96.75
2022-11-24T01:56:12.152Z,101.20
2022-11-24T01:58:43.729Z,97.53
2022-11-24T02:01:12.244Z,97.20
2022-11-24T02:03:43.104Z,97.45
2022-11-24T02:06:14.168Z,93.40
2022-11-24T02:08:48.709Z,95.32
2022-11-24T02:11:16.756Z,120.82
2022-11-24T02:13:46.684Z,85.60
2022-11-24T02:16:14.562Z,100.30
2022-11-24T02:18:43.561Z,93.93
2022-11-24T02:21:13.972Z,109.53
2022-11-24T02:23:50.968Z,125.70
2022-11-24T02:26:30.724Z,93.22
2022-11-24T02:28:58.782Z,122.85
2022-11-24T02:31:26.990Z,93.35
2022-11-24T02:33:55.858Z,87.43
2022-11-24T02:36:23.702Z,95.47
2022-11-24T02:38:51.513Z,96.85
2022-11-24T02:41:22.899Z,93.05
2022-11-24T02:43:55.927Z,89.93
2022-11-24T02:46:23.744Z,94.65
2022-11-24T02:48:51.581Z,80.45
2022-11-24T02:51:19.429Z,76.55
2022-11-24T02:53:47.318Z,87.63
2022-11-24T02:56:15.304Z,80.13
2022-11-24T02:58:43.097Z,85.30
2022-11-24T03:01:12.325Z,81.32
2022-11-24T03:03:40.388Z,80.47
2022-11-24T03:06:08.169Z,101.13
2022-11-24T03:08:35.937Z,79.78
2022-11-24T03:11:04.627Z,83.10
2022-11-24T03:13:32.385Z,91.38
2022-11-24T03:16:00.305Z,97.40
2022-11-24T03:18:29.522Z,75.53
2022-11-24T03:21:00.963Z,85.72
2022-11-24T03:23:28.920Z,80.20
2022-11-24T03:25:56.669Z,80.07
2022-11-24T03:28:24.452Z,94.57
2022-11-24T03:30:52.242Z,79.13
2022-11-24T03:33:20.178Z,77.57
2022-11-24T03:35:49.411Z,81.20
2022-11-24T03:38:17.253Z,79.80
2022-11-24T03:40:45.081Z,78.40
2022-11-24T03:43:12.945Z,80.25
2022-11-24T03:45:48.047Z,90.13
2022-11-24T03:48:16.484Z,81.40
2022-11-24T03:50:44.824Z,77.93
2022-11-24T03:53:14.036Z,128.10
2022-11-24T03:55:44.348Z,73.38
2022-11-24T03:58:12.184Z,72.75
2022-11-24T04:00:40.997Z,78.20
2022-11-24T04:03:08.905Z,89.72
2022-11-24T04:05:37.037Z,75.47
2022-11-24T04:08:05.352Z,72.30
2022-11-24T04:10:36.834Z,71.60
2022-11-24T04:13:04.232Z,78.65
2022-11-24T04:15:32.112Z,80.07
2022-11-24T04:17:59.781Z,74.35
2022-11-24T04:20:27.633Z,65.38
2022-11-24T04:22:55.346Z,77.05
2022-11-24T04:25:22.997Z,80.85
2022-11-24T04:27:54.067Z,70.30
2022-11-24T04:30:22.968Z,74.05
2022-11-24T04:32:51.183Z,71.10
2022-11-24T04:35:19.434Z,74.38
2022-11-24T04:37:47.197Z,76.50
2022-11-24T04:40:15.736Z,75.32
2022-11-24T04:42:43.511Z,72.53
2022-11-24T04:45:13.009Z,74.88
2022-11-24T04:47:40.661Z,71.80
2022-11-24T04:50:09.931Z,74.20
2022-11-24T04:52:37.615Z,71.65
2022-11-24T04:55:05.540Z,73.60
2022-11-24T04:57:33.284Z,78.88
2022-11-24T05:00:00.957Z,84.53
2022-11-24T05:02:30.022Z,82.82
2022-11-24T05:04:57.701Z,68.78
2022-11-24T05:07:25.400Z,73.70
2022-11-24T05:10:10.817Z,91.55
2022-11-24T05:12:39.567Z,79.82
2022-11-24T05:15:08.194Z,124.28
2022-11-24T05:17:39.156Z,141.27
2022-11-24T05:20:08.662Z,64.93
2022-11-24T05:22:36.462Z,119.72
2022-11-24T05:25:04.506Z,78.05
2022-11-24T05:27:32.118Z,72.50
2022-11-24T05:29:59.792Z,102.15
2022-11-24T05:32:27.595Z,91.28
2022-11-24T05:34:56.779Z,127.30
2022-11-24T05:37:25.548Z,82.25
2022-11-24T05:39:54.501Z,77.10
2022-11-24T05:42:44.871Z,63.85
2022-11-24T05:45:16.401Z,60.08
2022-11-24T05:47:44.133Z,82.50
2022-11-24T05:50:16.121Z,77.03
2022-11-24T05:52:43.939Z,120.32
2022-11-24T05:55:14.574Z,68.55
2022-11-24T05:57:42.744Z,82.90
2022-11-24T06:00:11.873Z,52.70
2022-11-24T06:02:39.676Z,63.55
2022-11-24T06:05:08.103Z,81.70
2022-11-24T06:07:37.376Z,81.78
2022-11-24T06:10:05.830Z,56.85
2022-11-24T06:12:33.510Z,77.55
2022-11-24T06:15:01.132Z,55.05
2022-11-24T06:17:29.092Z,54.22
2022-11-24T06:19:56.734Z,53.45
2022-11-24T06:22:24.382Z,54.00
2022-11-24T06:24:53.447Z,50.45
2022-11-24T06:27:21.090Z,49.83
2022-11-24T06:29:48.799Z,68.32
2022-11-24T06:32:17.011Z,54.42
2022-11-24T06:34:44.683Z,54.90
2022-11-24T06:37:12.347Z,83.20
2022-11-24T06:39:39.936Z,74.00
2022-11-24T06:42:08.996Z,93.30
2022-11-24T06:44:36.759Z,61.45
2022-11-24T06:47:04.572Z,71.30
2022-11-24T06:49:32.188Z,51.50
2022-11-24T06:51:59.808Z,55.00
2022-11-24T06:54:27.466Z,45.30
2022-11-24T06:56:57.445Z,56.15
2022-11-24T06:59:27.656Z,59.25
2022-11-24T07:01:55.337Z,53.28
2022-11-24T07:04:22.961Z,86.40
2022-11-24T07:06:50.666Z,56.88
2022-11-24T07:09:18.317Z,58.78
2022-11-24T07:11:46.013Z,61.55
2022-11-24T07:14:13.655Z,48.88
2022-11-24T07:16:43.155Z,53.63
2022-11-24T07:19:11.074Z,48.77
2022-11-24T07:21:38.704Z,57.28
2022-11-24T07:24:07.093Z,66.85
2022-11-24T07:26:37.156Z,55.92
2022-11-24T07:29:05.783Z,43.35
2022-11-24T07:31:33.570Z,60.92
2022-11-24T07:34:02.634Z,59.97
2022-11-24T07:36:30.294Z,47.00
2022-11-24T07:38:58.127Z,59.08
2022-11-24T07:41:25.805Z,43.85
2022-11-24T07:43:53.422Z,49.00
2022-11-24T07:46:21.511Z,46.20
2022-11-24T07:48:49.159Z,54.13
2022-11-24T07:51:18.281Z,47.55
2022-11-24T07:53:46.627Z,43.00
2022-11-24T07:56:14.247Z,53.95
2022-11-24T07:58:41.919Z,45.15
2022-11-24T08:01:11.880Z,52.15
2022-11-24T08:03:39.681Z,45.78
2022-11-24T08:06:23.616Z,47.78
2022-11-24T08:08:54.394Z,48.40
2022-11-24T08:11:22.339Z,52.58
2022-11-24T08:13:49.982Z,60.40
2022-11-24T08:16:19.739Z,81.60
2022-11-24T08:18:51.438Z,52.83
2022-11-24T08:21:19.434Z,56.08
2022-11-24T08:23:47.262Z,49.88
2022-11-24T08:26:19.227Z,49.97
2022-11-24T08:28:47.989Z,51.58
2022-11-24T08:31:18.673Z,45.75
2022-11-24T08:33:46.974Z,53.00
2022-11-24T08:36:15.995Z,54.60
2022-11-24T08:38:45.187Z,51.20
2022-11-24T08:41:15.152Z,49.67
2022-11-24T08:43:44.738Z,47.17
2022-11-24T08:46:16.809Z,48.70
2022-11-24T08:48:45.478Z,48.35
2022-11-24T08:51:14.724Z,45.67
2022-11-24T08:53:43.100Z,44.25
2022-11-24T08:56:12.863Z,51.95
2022-11-24T08:58:41.541Z,47.38
2022-11-24T09:01:12.225Z,44.63
2022-11-24T09:03:43.497Z,56.42
2022-11-24T09:06:16.606Z,48.45
2022-11-24T09:08:44.384Z,44.75
2022-11-24T09:11:14.048Z,42.05
2022-11-24T09:13:41.920Z,49.70
2022-11-24T09:16:12.885Z,53.20
2022-11-24T09:18:40.854Z,49.78
2022-11-24T09:21:09.255Z,46.25
2022-11-24T09:23:37.291Z,47.30
2022-11-24T09:26:06.518Z,46.30
2022-11-24T09:28:34.351Z,44.63
2022-11-24T09:31:03.241Z,49.22
2022-11-24T09:33:33.638Z,50.42
2022-11-24T09:36:01.668Z,47.92
2022-11-24T09:38:29.640Z,48.53
2022-11-24T09:40:57.671Z,49.35
2022-11-24T09:43:33.839Z,44.80
2022-11-24T09:46:09.798Z,54.50
2022-11-24T09:48:41.825Z,51.17
2022-11-24T09:51:12.992Z,49.78
2022-11-24T09:53:45.583Z,55.58
2022-11-24T09:56:20.722Z,51.90
2022-11-24T09:58:50.630Z,47.83
2022-11-24T10:01:20.653Z,54.95
2022-11-24T10:03:51.563Z,50.10
2022-11-24T10:06:23.730Z,49.08
2022-11-24T10:09:25.477Z,52.13
2022-11-24T10:12:03.270Z,53.03
2022-11-24T10:14:54.863Z,51.85
2022-11-24T10:17:39.363Z,46.20
2022-11-24T10:20:13.922Z,46.58
2022-11-24T10:22:52.583Z,45.95
2022-11-24T10:25:25.822Z,48.25
2022-11-24T10:27:59.811Z,45.70
2022-11-24T10:30:28.073Z,53.22
2022-11-24T10:32:59.510Z,48.30
2022-11-24T10:35:31.854Z,51.80
2022-11-24T10:38:08.621Z,52.65
2022-11-24T10:40:56.647Z,54.72
2022-11-24T10:43:27.355Z,49.72
2022-11-24T10:45:56.218Z,57.63
2022-11-24T10:48:27.203Z,49.03
2022-11-24T10:51:06.594Z,90.32
2022-11-24T10:53:36.581Z,61.28
2022-11-24T10:56:06.270Z,50.75
2022-11-24T10:58:38.058Z,48.10
2022-11-24T11:01:22.190Z,50.72
2022-11-24T11:03:52.455Z,50.08
2022-11-24T11:06:24.564Z,48.35
2022-11-24T11:09:17.583Z,49.17
2022-11-24T11:11:46.980Z,45.70
2022-11-24T11:14:29.074Z,52.13
2022-11-24T11:16:58.249Z,54.10
2022-11-24T11:19:48.826Z,52.28
2022-11-24T11:22:25.773Z,53.63
2022-11-24T11:25:05.669Z,50.40
2022-11-24T11:27:33.329Z,49.05
2022-11-24T11:36:11.789Z,46.17
2022-11-24T11:38:42.351Z,51.65
2022-11-24T11:43:45.734Z,56.13
2022-11-24T11:46:15.582Z,48.60
2022-11-24T11:48:46.711Z,53.95
2022-11-24T11:51:40.150Z,48.25
2022-11-24T11:54:17.820Z,53.47
2022-11-24T11:56:48.911Z,52.40
2022-11-24T11:59:38.923Z,49.13
2022-11-24T12:02:50.036Z,52.03
2022-11-24T12:05:29.993Z,55.50
2022-11-24T12:08:20.799Z,51.42
2022-11-24T12:10:57.448Z,53.92
2022-11-24T12:13:52.403Z,49.10
2022-11-24T12:16:33.279Z,50.58
2022-11-24T12:19:15.647Z,52.42
2022-11-24T12:21:53.116Z,45.67
2022-11-24T12:24:31.146Z,47.67
2022-11-24T12:27:05.064Z,53.60
2022-11-24T12:29:53.192Z,73.30
2022-11-24T12:32:38.775Z,59.47
2022-11-24T12:35:18.064Z,50.97
2022-11-24T12:37:59.057Z,48.13
2022-11-24T12:40:46.633Z,53.92
2022-11-24T12:43:23.948Z,48.28
2022-11-24T12:46:00.419Z,54.97
2022-11-24T12:48:44.004Z,50.05
2022-11-24T12:51:18.386Z,49.00
2022-11-24T12:53:47.515Z,50.20
2022-11-24T12:56:17.798Z,49.55
2022-11-24T12:58:55.484Z,53.33
2022-11-24T13:01:32.196Z,48.25
2022-11-24T13:04:13.251Z,47.97
2022-11-24T13:06:51.708Z,53.25
2022-11-24T13:09:19.983Z,50.58
2022-11-24T13:11:49.182Z,47.50
2022-11-24T13:14:21.620Z,50.15
2022-11-24T13:19:43.335Z,50.00
2022-11-24T13:22:16.364Z,49.20
2022-11-24T13:24:45.388Z,49.10
2022-11-24T13:27:39.944Z,131.02
2022-11-24T13:30:49.649Z,89.30
2022-11-24T13:33:31.773Z,53.85
2022-11-24T13:36:30.819Z,55.65
2022-11-24T13:38:59.467Z,58.63
2022-11-24T13:42:10.389Z,61.65
2022-11-24T13:44:59.483Z,49.22
2022-11-24T13:47:38.817Z,49.20
2022-11-24T13:50:10.997Z,50.88
2022-11-24T13:52:43.522Z,48.78
2022-11-24T13:55:24.310Z,54.30
2022-11-24T13:57:54.361Z,55.10
2022-11-24T14:00:23.762Z,53.67
2022-11-24T14:02:52.454Z,56.75
2022-11-24T14:05:28.418Z,58.85
2022-11-24T14:07:56.200Z,49.55
2022-11-24T14:10:31.944Z,52.70
2022-11-24T14:13:17.912Z,53.00
2022-11-24T14:15:45.917Z,51.78
2022-11-24T14:18:22.698Z,48.55
2022-11-24T14:20:51.943Z,49.78
2022-11-24T14:23:19.727Z,50.30
2022-11-24T14:25:49.431Z,50.58
2022-11-24T14:28:23.949Z,47.37
2022-11-24T14:30:51.780Z,50.03
2022-11-24T14:33:21.082Z,54.33
2022-11-24T14:35:51.867Z,48.33
2022-11-24T14:38:19.518Z,51.38
2022-11-24T14:40:49.694Z,66.72
2022-11-24T14:43:21.563Z,60.25
2022-11-24T14:45:54.275Z,56.38
2022-11-24T14:48:28.734Z,51.03
2022-11-24T14:51:08.974Z,59.38
2022-11-24T14:53:37.197Z,53.28
2022-11-24T14:56:09.784Z,58.05
2022-11-24T14:58:42.035Z,58.55
2022-11-24T15:01:19.496Z,58.70
2022-11-24T15:03:47.757Z,59.22
2022-11-24T15:06:20.366Z,54.17
2022-11-24T15:08:50.235Z,54.13
2022-11-24T15:11:17.967Z,58.28
2022-11-24T15:13:55.331Z,53.47
2022-11-24T15:16:26.031Z,52.65
2022-11-24T15:19:00.200Z,53.92
2022-11-24T15:21:34.296Z,56.08
2022-11-24T15:24:17.197Z,52.00
2022-11-24T15:26:45.828Z,55.97
2022-11-24T15:29:14.142Z,51.40
2022-11-24T15:31:46.455Z,53.17
2022-11-24T15:34:18.867Z,59.97
2022-11-24T15:36:48.167Z,54.45
2022-11-24T15:39:16.132Z,61.15
2022-11-24T15:41:44.164Z,57.00
2022-11-24T15:44:12.118Z,58.92
2022-11-24T15:46:40.125Z,66.63
2022-11-24T15:49:08.156Z,71.95
2022-11-24T15:51:40.367Z,56.58
2022-11-24T15:54:14.756Z,59.60
2022-11-24T15:56:44.376Z,61.10
2022-11-24T15:59:20.253Z,59.40
2022-11-24T16:01:50.674Z,66.40
2022-11-24T16:04:18.936Z,63.57
2022-11-24T16:06:46.686Z,60.05
2022-11-24T16:09:17.743Z,57.65
2022-11-24T16:11:45.595Z,56.22
2022-11-24T16:14:13.563Z,53.03
2022-11-24T16:16:41.891Z,61.95
2022-11-24T16:19:10.104Z,60.72
2022-11-24T16:21:38.004Z,55.88
2022-11-24T16:24:06.247Z,55.08
2022-11-24T16:26:35.551Z,62.13
2022-11-24T16:29:03.542Z,62.75
2022-11-24T16:31:31.571Z,60.88
2022-11-24T16:33:59.577Z,63.65
2022-11-24T16:36:28.342Z,59.90
2022-11-24T16:38:56.219Z,59.90
2022-11-24T16:41:23.900Z,59.53
2022-11-24T16:43:53.742Z,59.00
2022-11-24T16:46:24.032Z,56.15
2022-11-24T16:48:54.936Z,55.63
2022-11-24T16:51:24.270Z,56.92
2022-11-24T16:53:58.260Z,58.63
2022-11-24T16:56:26.399Z,53.72
2022-11-24T16:58:55.870Z,54.22
2022-11-24T17:01:23.962Z,52.15
2022-11-24T17:03:51.704Z,54.17
2022-11-24T17:06:20.120Z,54.00
2022-11-24T17:08:48.381Z,52.33
2022-11-24T17:11:17.991Z,58.65
2022-11-24T17:13:47.008Z,58.93
2022-11-24T17:16:17.667Z,55.28
2022-11-24T17:18:45.884Z,55.90
2022-11-24T17:21:15.327Z,56.55
2022-11-24T17:23:43.008Z,56.35
2022-11-24T17:26:13.701Z,61.67
2022-11-24T17:28:42.307Z,55.70
2022-11-24T17:31:18.714Z,54.03
2022-11-24T17:33:46.391Z,56.33
2022-11-24T17:36:14.005Z,50.88
2022-11-24T17:38:41.667Z,51.67
2022-11-24T17:41:09.490Z,46.25
2022-11-24T17:43:37.100Z,54.03
2022-11-24T17:46:06.261Z,53.00
2022-11-24T17:48:36.524Z,56.75
2022-11-24T17:51:07.731Z,53.53
2022-11-24T17:53:37.420Z,52.58
2022-11-24T17:56:05.359Z,51.47
2022-11-24T17:58:38.314Z,54.22
2022-11-24T18:01:09.331Z,58.90
2022-11-24T18:03:39.771Z,63.28
2022-11-24T18:06:08.290Z,50.83
2022-11-24T18:08:36.213Z,48.72
2022-11-24T18:11:04.929Z,52.75
2022-11-24T18:13:55.339Z,59.33
2022-11-24T18:16:20.524Z,65.68
2022-11-24T18:18:51.070Z,56.13
2022-11-24T18:21:18.910Z,56.00
2022-11-24T18:23:47.194Z,54.10
2022-11-24T18:26:16.518Z,62.67
2022-11-24T18:28:44.797Z,55.53
2022-11-24T18:31:14.261Z,66.05
2022-11-24T18:33:43.954Z,61.92
2022-11-24T18:36:14.801Z,63.07
2022-11-24T18:38:42.484Z,58.50
2022-11-24T18:41:11.618Z,60.90
2022-11-24T18:43:39.250Z,59.33
2022-11-24T18:46:08.724Z,63.95
2022-11-24T18:48:36.836Z,53.45
2022-11-24T18:51:05.050Z,66.13
2022-11-24T18:53:34.018Z,60.63
2022-11-24T18:56:03.614Z,55.22
2022-11-24T18:58:32.899Z,65.00
2022-11-24T19:01:07.909Z,62.53
2022-11-24T19:03:39.121Z,70.93
2022-11-24T19:06:13.147Z,68.47
2022-11-24T19:08:42.238Z,67.97
2022-11-24T19:11:17.605Z,67.32
2022-11-24T19:13:45.250Z,60.30
2022-11-24T19:16:13.312Z,68.75
2022-11-24T19:18:41.026Z,65.35
2022-11-24T19:21:08.882Z,62.03
2022-11-24T19:23:36.536Z,63.63
2022-11-24T19:26:06.934Z,77.85
2022-11-24T19:28:34.923Z,61.05
2022-11-24T19:31:02.820Z,61.88
2022-11-24T19:33:30.705Z,60.85
2022-11-24T19:36:03.608Z,56.25
2022-11-24T19:38:32.762Z,65.57
2022-11-24T19:41:06.436Z,54.95
2022-11-24T19:43:34.818Z,69.70
2022-11-24T19:46:02.998Z,70.80
2022-11-24T19:48:34.648Z,68.78
2022-11-24T19:51:03.230Z,77.43
2022-11-24T19:53:31.710Z,71.97
2022-11-24T19:56:05.889Z,79.63
2022-11-24T19:58:33.895Z,67.68
2022-11-24T20:01:07.873Z,71.70
2022-11-24T20:03:35.771Z,69.32
2022-11-24T20:06:03.724Z,69.88
2022-11-24T20:08:34.015Z,71.70
2022-11-24T20:11:06.971Z,75.60
2022-11-24T20:13:35.950Z,66.35
2022-11-24T20:16:04.842Z,68.45
2022-11-24T20:18:37.581Z,67.82
2022-11-24T20:21:10.960Z,67.25
2022-11-24T20:23:39.040Z,73.78
2022-11-24T20:26:10.011Z,70.85
2022-11-24T20:28:37.699Z,84.75
2022-11-24T20:31:07.460Z,74.07
2022-11-24T20:33:35.655Z,72.93
2022-11-24T20:36:05.980Z,71.80
2022-11-24T20:38:34.420Z,81.07
2022-11-24T20:41:08.747Z,64.78
2022-11-24T20:43:38.556Z,77.63
2022-11-24T20:46:08.294Z,95.40
2022-11-24T20:48:36.776Z,80.03
2022-11-24T20:51:07.143Z,92.00
2022-11-24T20:53:35.835Z,71.45
2022-11-24T20:56:06.033Z,91.60
2022-11-24T20:58:34.841Z,66.80
2022-11-24T21:01:08.639Z,72.38
2022-11-24T21:03:42.622Z,82.80
2022-11-24T21:06:12.292Z,78.63
2022-11-24T21:08:41.981Z,94.38
2022-11-24T21:11:12.038Z,79.93
2022-11-24T21:13:40.868Z,82.47
2022-11-24T21:16:17.774Z,85.72
2022-11-24T21:18:46.850Z,129.57
2022-11-24T21:21:15.297Z,107.18
2022-11-24T21:23:44.940Z,120.90
2022-11-24T21:26:16.817Z,122.63
2022-11-24T21:28:46.754Z,54.65
2022-11-24T21:31:17.751Z,166.23
2022-11-24T21:33:47.431Z,78.05
2022-11-24T21:36:16.439Z,85.23
2022-11-24T21:38:44.675Z,63.03
2022-11-24T21:41:13.894Z,51.08
2022-11-24T21:43:41.683Z,59.70
2022-11-24T21:46:11.175Z,120.10
2022-11-24T21:48:41.653Z,84.45
2022-11-24T21:53:39.128Z,75.05
2022-11-24T21:56:09.689Z,160.13
2022-11-24T22:01:08.716Z,125.35
2022-11-24T22:03:36.458Z,59.15
2022-11-24T22:06:05.733Z,84.95
2022-11-24T22:08:33.701Z,54.95
2022-11-24T22:11:02.078Z,52.22
2022-11-24T22:13:29.976Z,76.28
2022-11-24T22:16:05.155Z,41.42
2022-11-24T22:18:34.205Z,61.47
2022-11-24T22:21:02.734Z,71.63
2022-11-24T22:23:32.412Z,60.45
2022-11-24T22:26:03.851Z,57.60
2022-11-24T22:28:32.974Z,50.05
2022-11-24T22:31:05.355Z,64.35
2022-11-24T22:33:33.238Z,63.45
2022-11-24T22:36:02.022Z,48.47
2022-11-24T22:38:30.881Z,64.03
2022-11-24T22:41:03.758Z,53.38
2022-11-24T22:43:33.187Z,52.63
2022-11-24T22:46:04.565Z,93.57
2022-11-24T22:48:32.280Z,75.60
2022-11-24T22:51:04.252Z,71.25
2022-11-24T22:53:32.113Z,68.82
2022-11-24T22:56:04.327Z,76.63
2022-11-24T22:58:32.857Z,80.63
2022-11-24T23:01:05.359Z,98.60
2022-11-24T23:03:33.670Z,62.40
2022-11-24T23:06:01.673Z,85.15
2022-11-24T23:08:29.346Z,92.00
2022-11-24T23:11:00.752Z,62.42
2022-11-24T23:13:29.828Z,63.05
2022-11-24T23:16:01.537Z,61.75
2022-11-24T23:18:29.577Z,59.88
2022-11-24T23:20:57.503Z,59.05
2022-11-24T23:23:25.151Z,59.03
2022-11-24T23:25:52.782Z,57.00
2022-11-24T23:28:20.455Z,59.50
2022-11-24T23:30:49.429Z,54.10
2022-11-24T23:33:17.080Z,50.30
2022-11-24T23:35:44.735Z,55.80
2022-11-24T23:38:12.380Z,49.85
2022-11-24T23:40:39.983Z,57.40
2022-11-24T23:43:07.570Z,53.03
2022-11-24T23:45:35.247Z,56.95
2022-11-24T23:48:04.375Z,61.08
2022-11-24T23:50:32.063Z,57.83
2022-11-24T23:52:59.728Z,61.72
2022-11-24T23:55:27.395Z,57.97
2022-11-24T23:57:55.056Z,50.70
